Terminal Aerodrome Forecast
Issued by NWS

Home | Current Version | Previous Version | Text Only | Print | Product List | Glossary On
Versions: 1 2 3 4 5 6 7 8 9 10 11 12
712
FTUS42 TJSJ 090541
TAFJBQ
TAF
TJBQ 090541Z 0906/1006 12008KT P6SM FEW030 SCT110
     FM091300 08015KT P6SM FEW030 FEW060
     FM092300 09008KT P6SM SCT025
      AMD NOT SKED TIL 091100=

USA.gov is the U.S. government's official web portal to all federal, state and local government web resources and services.